sensor_id;sensor_type;location;lat;lon;timestamp;temperature;humidity
51996;DHT22;38010;53.264;6.592;2022-11-11T00:03:29;16.30;99.90
51996;DHT22;38010;53.264;6.592;2022-11-11T00:06:03;16.40;99.90
51996;DHT22;38010;53.264;6.592;2022-11-11T00:08:29;16.40;99.90
51996;DHT22;38010;53.264;6.592;2022-11-11T00:11:05;16.30;99.90
51996;DHT22;38010;53.264;6.592;2022-11-11T00:13:32;16.30;99.90
51996;DHT22;38010;53.264;6.592;2022-11-11T00:18:30;16.30;99.90
51996;DHT22;38010;53.264;6.592;2022-11-11T00:21:14;16.30;99.90
51996;DHT22;38010;53.264;6.592;2022-11-11T00:23:58;16.30;99.90
51996;DHT22;38010;53.264;6.592;2022-11-11T00:26:43;16.30;99.90
51996;DHT22;38010;53.264;6.592;2022-11-11T00:29:08;16.30;99.90
51996;DHT22;38010;53.264;6.592;2022-11-11T00:31:34;16.30;99.90
51996;DHT22;38010;53.264;6.592;2022-11-11T00:34:00;16.30;99.90
51996;DHT22;38010;53.264;6.592;2022-11-11T00:36:26;16.30;99.90
51996;DHT22;38010;53.264;6.592;2022-11-11T00:38:51;16.30;99.90
51996;DHT22;38010;53.264;6.592;2022-11-11T00:41:21;16.30;99.90
51996;DHT22;38010;53.264;6.592;2022-11-11T00:43:47;16.30;99.90
51996;DHT22;38010;53.264;6.592;2022-11-11T00:46:15;16.30;99.90
51996;DHT22;38010;53.264;6.592;2022-11-11T00:48:59;16.30;99.90
51996;DHT22;38010;53.264;6.592;2022-11-11T00:51:44;16.30;99.90
51996;DHT22;38010;53.264;6.592;2022-11-11T00:54:10;16.30;99.90
51996;DHT22;38010;53.264;6.592;2022-11-11T00:56:36;16.30;99.90
51996;DHT22;38010;53.264;6.592;2022-11-11T00:59:03;16.30;99.90
51996;DHT22;38010;53.264;6.592;2022-11-11T01:01:29;16.30;99.90
51996;DHT22;38010;53.264;6.592;2022-11-11T01:03:54;16.30;99.90
51996;DHT22;38010;53.264;6.592;2022-11-11T01:06:20;16.30;99.90
51996;DHT22;38010;53.264;6.592;2022-11-11T01:08:46;16.30;99.90
51996;DHT22;38010;53.264;6.592;2022-11-11T01:11:17;16.30;99.90
51996;DHT22;38010;53.264;6.592;2022-11-11T01:13:43;16.20;99.90
51996;DHT22;38010;53.264;6.592;2022-11-11T01:16:14;16.30;99.90
51996;DHT22;38010;53.264;6.592;2022-11-11T01:18:41;16.30;99.90
51996;DHT22;38010;53.264;6.592;2022-11-11T01:21:15;16.20;99.90
51996;DHT22;38010;53.264;6.592;2022-11-11T01:23:42;16.20;99.90
51996;DHT22;38010;53.264;6.592;2022-11-11T01:26:22;16.20;99.90
51996;DHT22;38010;53.264;6.592;2022-11-11T01:28:50;16.20;99.90
51996;DHT22;38010;53.264;6.592;2022-11-11T01:31:17;16.20;99.90
51996;DHT22;38010;53.264;6.592;2022-11-11T01:33:43;16.20;99.90
51996;DHT22;38010;53.264;6.592;2022-11-11T01:36:12;16.20;99.90
51996;DHT22;38010;53.264;6.592;2022-11-11T01:38:38;16.20;99.90
51996;DHT22;38010;53.264;6.592;2022-11-11T01:41:06;16.20;99.90
51996;DHT22;38010;53.264;6.592;2022-11-11T01:43:50;16.20;99.90
51996;DHT22;38010;53.264;6.592;2022-11-11T01:52:04;16.20;99.90
51996;DHT22;38010;53.264;6.592;2022-11-11T01:54:41;16.20;99.90
51996;DHT22;38010;53.264;6.592;2022-11-11T01:59:45;16.20;99.90
51996;DHT22;38010;53.264;6.592;2022-11-11T02:02:38;16.20;99.90
51996;DHT22;38010;53.264;6.592;2022-11-11T02:05:08;16.20;99.90
51996;DHT22;38010;53.264;6.592;2022-11-11T02:07:54;16.20;99.90
51996;DHT22;38010;53.264;6.592;2022-11-11T02:10:23;16.20;99.90
51996;DHT22;38010;53.264;6.592;2022-11-11T02:12:49;16.20;99.90
51996;DHT22;38010;53.264;6.592;2022-11-11T02:15:42;16.20;99.90
51996;DHT22;38010;53.264;6.592;2022-11-11T02:18:08;16.20;99.90
51996;DHT22;38010;53.264;6.592;2022-11-11T02:20:37;16.20;99.90
51996;DHT22;38010;53.264;6.592;2022-11-11T02:23:24;16.20;99.90
51996;DHT22;38010;53.264;6.592;2022-11-11T02:25:53;16.20;99.90
51996;DHT22;38010;53.264;6.592;2022-11-11T02:28:22;16.20;99.90
51996;DHT22;38010;53.264;6.592;2022-11-11T02:30:48;16.20;99.90
51996;DHT22;38010;53.264;6.592;2022-11-11T02:33:13;16.20;99.90
51996;DHT22;38010;53.264;6.592;2022-11-11T02:35:45;16.20;99.90
51996;DHT22;38010;53.264;6.592;2022-11-11T02:38:20;16.20;99.90
51996;DHT22;38010;53.264;6.592;2022-11-11T02:40:46;16.20;99.90
51996;DHT22;38010;53.264;6.592;2022-11-11T02:43:31;16.20;99.90
51996;DHT22;38010;53.264;6.592;2022-11-11T02:45:57;16.20;99.90
51996;DHT22;38010;53.264;6.592;2022-11-11T02:48:24;16.20;99.90
51996;DHT22;38010;53.264;6.592;2022-11-11T02:50:50;16.20;99.90
51996;DHT22;38010;53.264;6.592;2022-11-11T02:53:16;16.20;99.90
51996;DHT22;38010;53.264;6.592;2022-11-11T02:55:42;16.20;99.90
51996;DHT22;38010;53.264;6.592;2022-11-11T02:58:07;16.20;99.90
51996;DHT22;38010;53.264;6.592;2022-11-11T03:00:33;16.20;99.90
51996;DHT22;38010;53.264;6.592;2022-11-11T03:02:58;16.20;99.90
51996;DHT22;38010;53.264;6.592;2022-11-11T03:05:24;16.20;99.90
51996;DHT22;38010;53.264;6.592;2022-11-11T03:07:50;16.20;99.90
51996;DHT22;38010;53.264;6.592;2022-11-11T03:10:16;16.10;99.90
51996;DHT22;38010;53.264;6.592;2022-11-11T03:12:42;16.20;99.90
51996;DHT22;38010;53.264;6.592;2022-11-11T03:15:08;16.20;99.90
51996;DHT22;38010;53.264;6.592;2022-11-11T03:17:34;16.20;99.90
51996;DHT22;38010;53.264;6.592;2022-11-11T03:20:11;16.10;99.90
51996;DHT22;38010;53.264;6.592;2022-11-11T03:23:10;16.20;99.90
51996;DHT22;38010;53.264;6.592;2022-11-11T03:25:45;16.20;99.90
51996;DHT22;38010;53.264;6.592;2022-11-11T03:28:16;16.10;99.90
51996;DHT22;38010;53.264;6.592;2022-11-11T03:30:44;16.10;99.90
51996;DHT22;38010;53.264;6.592;2022-11-11T03:33:10;16.20;99.90
51996;DHT22;38010;53.264;6.592;2022-11-11T03:35:36;16.10;99.90
51996;DHT22;38010;53.264;6.592;2022-11-11T03:38:04;16.10;99.90
51996;DHT22;38010;53.264;6.592;2022-11-11T03:40:56;16.20;99.90
51996;DHT22;38010;53.264;6.592;2022-11-11T03:43:24;16.10;99.90
51996;DHT22;38010;53.264;6.592;2022-11-11T03:45:54;16.10;99.90
51996;DHT22;38010;53.264;6.592;2022-11-11T03:48:21;16.10;99.90
51996;DHT22;38010;53.264;6.592;2022-11-11T03:50:47;16.20;99.90
51996;DHT22;38010;53.264;6.592;2022-11-11T03:53:13;16.10;99.90
51996;DHT22;38010;53.264;6.592;2022-11-11T03:55:40;16.10;99.90
51996;DHT22;38010;53.264;6.592;2022-11-11T03:58:06;16.10;99.90
51996;DHT22;38010;53.264;6.592;2022-11-11T04:00:32;16.10;99.90
51996;DHT22;38010;53.264;6.592;2022-11-11T04:03:13;16.10;99.90
51996;DHT22;38010;53.264;6.592;2022-11-11T04:05:57;16.10;99.90
51996;DHT22;38010;53.264;6.592;2022-11-11T04:08:42;16.10;99.90
51996;DHT22;38010;53.264;6.592;2022-11-11T04:11:37;16.10;99.90
51996;DHT22;38010;53.264;6.592;2022-11-11T04:14:06;16.10;99.90
51996;DHT22;38010;53.264;6.592;2022-11-11T04:16:51;16.10;99.90
51996;DHT22;38010;53.264;6.592;2022-11-11T04:19:17;16.10;99.90
51996;DHT22;38010;53.264;6.592;2022-11-11T04:22:01;16.10;99.90
51996;DHT22;38010;53.264;6.592;2022-11-11T04:24:27;16.10;99.90
51996;DHT22;38010;53.264;6.592;2022-11-11T04:27:13;16.10;99.90
51996;DHT22;38010;53.264;6.592;2022-11-11T04:29:40;16.10;99.90
51996;DHT22;38010;53.264;6.592;2022-11-11T04:32:08;16.10;99.90
51996;DHT22;38010;53.264;6.592;2022-11-11T04:34:57;16.10;99.90
51996;DHT22;38010;53.264;6.592;2022-11-11T04:37:24;16.10;99.90
51996;DHT22;38010;53.264;6.592;2022-11-11T04:39:50;16.10;99.90
51996;DHT22;38010;53.264;6.592;2022-11-11T04:42:35;16.00;99.90
51996;DHT22;38010;53.264;6.592;2022-11-11T04:45:01;16.00;99.90
51996;DHT22;38010;53.264;6.592;2022-11-11T04:50:40;16.00;99.90
51996;DHT22;38010;53.264;6.592;2022-11-11T04:53:13;16.00;99.90
51996;DHT22;38010;53.264;6.592;2022-11-11T04:55:41;16.00;99.90
51996;DHT22;38010;53.264;6.592;2022-11-11T04:58:28;16.10;99.90
51996;DHT22;38010;53.264;6.592;2022-11-11T05:00:54;16.00;99.90
51996;DHT22;38010;53.264;6.592;2022-11-11T05:03:20;16.00;99.90
51996;DHT22;38010;53.264;6.592;2022-11-11T05:05:53;16.00;99.90
51996;DHT22;38010;53.264;6.592;2022-11-11T05:08:43;16.00;99.90
51996;DHT22;38010;53.264;6.592;2022-11-11T05:11:29;16.10;99.90
51996;DHT22;38010;53.264;6.592;2022-11-11T05:13:57;16.00;99.90
51996;DHT22;38010;53.264;6.592;2022-11-11T05:16:44;16.00;99.90
51996;DHT22;38010;53.264;6.592;2022-11-11T05:19:29;16.00;99.90
51996;DHT22;38010;53.264;6.592;2022-11-11T05:22:22;16.00;99.90
51996;DHT22;38010;53.264;6.592;2022-11-11T05:24:49;16.00;99.90
51996;DHT22;38010;53.264;6.592;2022-11-11T05:27:33;16.00;99.90
51996;DHT22;38010;53.264;6.592;2022-11-11T05:29:59;16.00;99.90
51996;DHT22;38010;53.264;6.592;2022-11-11T05:32:25;16.00;99.90
51996;DHT22;38010;53.264;6.592;2022-11-11T05:34:51;16.00;99.90
51996;DHT22;38010;53.264;6.592;2022-11-11T05:37:17;16.00;99.90
51996;DHT22;38010;53.264;6.592;2022-11-11T05:39:43;16.00;99.90
51996;DHT22;38010;53.264;6.592;2022-11-11T05:42:10;16.00;99.90
51996;DHT22;38010;53.264;6.592;2022-11-11T05:44:36;16.00;99.90
51996;DHT22;38010;53.264;6.592;2022-11-11T05:47:01;16.00;99.90
51996;DHT22;38010;53.264;6.592;2022-11-11T05:49:27;16.00;99.90
51996;DHT22;38010;53.264;6.592;2022-11-11T05:51:53;16.00;99.90
51996;DHT22;38010;53.264;6.592;2022-11-11T05:54:20;16.00;99.90
51996;DHT22;38010;53.264;6.592;2022-11-11T05:56:46;15.90;99.90
51996;DHT22;38010;53.264;6.592;2022-11-11T05:59:11;16.00;99.90
51996;DHT22;38010;53.264;6.592;2022-11-11T06:01:37;16.00;99.90
51996;DHT22;38010;53.264;6.592;2022-11-11T06:04:04;16.00;99.90
51996;DHT22;38010;53.264;6.592;2022-11-11T06:06:30;16.00;99.90
51996;DHT22;38010;53.264;6.592;2022-11-11T06:08:56;16.00;99.90
51996;DHT22;38010;53.264;6.592;2022-11-11T06:11:22;16.00;99.90
51996;DHT22;38010;53.264;6.592;2022-11-11T06:13:48;16.00;99.90
51996;DHT22;38010;53.264;6.592;2022-11-11T06:16:14;16.00;99.90
51996;DHT22;38010;53.264;6.592;2022-11-11T06:18:40;16.00;99.90
51996;DHT22;38010;53.264;6.592;2022-11-11T06:21:06;16.00;99.90
51996;DHT22;38010;53.264;6.592;2022-11-11T06:23:32;16.00;99.90
51996;DHT22;38010;53.264;6.592;2022-11-11T06:25:57;15.90;99.90
51996;DHT22;38010;53.264;6.592;2022-11-11T06:31:22;15.90;99.90
51996;DHT22;38010;53.264;6.592;2022-11-11T06:33:48;15.90;99.90
51996;DHT22;38010;53.264;6.592;2022-11-11T06:36:16;15.90;99.90
51996;DHT22;38010;53.264;6.592;2022-11-11T06:38:42;15.90;99.90
51996;DHT22;38010;53.264;6.592;2022-11-11T06:41:08;15.90;99.90
51996;DHT22;38010;53.264;6.592;2022-11-11T06:43:37;15.90;99.90
51996;DHT22;38010;53.264;6.592;2022-11-11T06:46:03;15.90;99.90
51996;DHT22;38010;53.264;6.592;2022-11-11T06:48:29;15.90;99.90
51996;DHT22;38010;53.264;6.592;2022-11-11T06:51:01;15.90;99.90
51996;DHT22;38010;53.264;6.592;2022-11-11T06:53:28;15.90;99.90
51996;DHT22;38010;53.264;6.592;2022-11-11T06:55:55;15.90;99.90
51996;DHT22;38010;53.264;6.592;2022-11-11T06:58:21;15.90;99.90
51996;DHT22;38010;53.264;6.592;2022-11-11T07:00:47;15.90;99.90
51996;DHT22;38010;53.264;6.592;2022-11-11T07:03:16;15.90;99.90
51996;DHT22;38010;53.264;6.592;2022-11-11T07:05:42;15.90;99.90
51996;DHT22;38010;53.264;6.592;2022-11-11T07:08:10;15.90;99.90
51996;DHT22;38010;53.264;6.592;2022-11-11T07:10:38;15.90;99.90
51996;DHT22;38010;53.264;6.592;2022-11-11T07:13:05;15.90;99.90
51996;DHT22;38010;53.264;6.592;2022-11-11T07:15:31;15.90;99.90
51996;DHT22;38010;53.264;6.592;2022-11-11T07:17:57;15.90;99.90
51996;DHT22;38010;53.264;6.592;2022-11-11T07:20:23;15.90;99.90
51996;DHT22;38010;53.264;6.592;2022-11-11T07:22:48;16.00;99.90
51996;DHT22;38010;53.264;6.592;2022-11-11T07:25:14;16.00;99.90
51996;DHT22;38010;53.264;6.592;2022-11-11T07:27:41;16.00;99.90
51996;DHT22;38010;53.264;6.592;2022-11-11T07:30:07;16.00;99.90
51996;DHT22;38010;53.264;6.592;2022-11-11T07:32:33;16.00;99.90
51996;DHT22;38010;53.264;6.592;2022-11-11T07:34:59;16.00;99.90
51996;DHT22;38010;53.264;6.592;2022-11-11T07:37:25;16.00;99.90
51996;DHT22;38010;53.264;6.592;2022-11-11T07:39:50;16.10;99.90
51996;DHT22;38010;53.264;6.592;2022-11-11T07:42:16;16.10;99.90
51996;DHT22;38010;53.264;6.592;2022-11-11T07:44:42;16.10;99.90
51996;DHT22;38010;53.264;6.592;2022-11-11T07:47:07;16.20;99.90
51996;DHT22;38010;53.264;6.592;2022-11-11T07:49:33;16.20;99.90
51996;DHT22;38010;53.264;6.592;2022-11-11T07:51:59;16.20;99.90
51996;DHT22;38010;53.264;6.592;2022-11-11T07:54:25;16.10;99.90
51996;DHT22;38010;53.264;6.592;2022-11-11T07:56:50;16.20;99.90
51996;DHT22;38010;53.264;6.592;2022-11-11T07:59:16;16.20;99.90
51996;DHT22;38010;53.264;6.592;2022-11-11T08:01:42;16.30;99.90
51996;DHT22;38010;53.264;6.592;2022-11-11T08:04:07;16.30;99.90
51996;DHT22;38010;53.264;6.592;2022-11-11T08:06:33;16.30;99.90
51996;DHT22;38010;53.264;6.592;2022-11-11T08:08:59;16.30;99.90
51996;DHT22;38010;53.264;6.592;2022-11-11T08:11:24;16.40;99.90
51996;DHT22;38010;53.264;6.592;2022-11-11T08:14:09;16.30;99.90
51996;DHT22;38010;53.264;6.592;2022-11-11T08:16:34;16.40;99.90
51996;DHT22;38010;53.264;6.592;2022-11-11T08:19:00;16.40;99.90
51996;DHT22;38010;53.264;6.592;2022-11-11T08:21:26;16.40;99.90
51996;DHT22;38010;53.264;6.592;2022-11-11T08:23:52;16.40;99.90
51996;DHT22;38010;53.264;6.592;2022-11-11T08:26:20;16.40;99.90
51996;DHT22;38010;53.264;6.592;2022-11-11T08:28:46;16.40;99.90
51996;DHT22;38010;53.264;6.592;2022-11-11T08:31:12;16.40;99.90
51996;DHT22;38010;53.264;6.592;2022-11-11T08:33:38;16.40;99.90
51996;DHT22;38010;53.264;6.592;2022-11-11T08:36:04;16.40;99.90
51996;DHT22;38010;53.264;6.592;2022-11-11T08:38:32;16.40;99.90
51996;DHT22;38010;53.264;6.592;2022-11-11T08:41:00;16.40;99.90
51996;DHT22;38010;53.264;6.592;2022-11-11T08:43:26;16.40;99.90
51996;DHT22;38010;53.264;6.592;2022-11-11T08:45:52;16.40;99.90
51996;DHT22;38010;53.264;6.592;2022-11-11T08:48:18;16.50;99.90
51996;DHT22;38010;53.264;6.592;2022-11-11T08:50:44;16.50;99.90
51996;DHT22;38010;53.264;6.592;2022-11-11T08:53:10;16.50;99.90
51996;DHT22;38010;53.264;6.592;2022-11-11T08:55:36;16.50;99.90
51996;DHT22;38010;53.264;6.592;2022-11-11T08:58:04;16.50;99.90
51996;DHT22;38010;53.264;6.592;2022-11-11T09:00:30;16.50;99.90
51996;DHT22;38010;53.264;6.592;2022-11-11T09:03:05;16.50;99.90
51996;DHT22;38010;53.264;6.592;2022-11-11T09:05:32;16.50;99.90
51996;DHT22;38010;53.264;6.592;2022-11-11T09:08:02;16.60;99.90
51996;DHT22;38010;53.264;6.592;2022-11-11T09:10:27;16.60;99.90
51996;DHT22;38010;53.264;6.592;2022-11-11T09:12:57;16.60;99.90
51996;DHT22;38010;53.264;6.592;2022-11-11T09:15:23;16.60;99.90
51996;DHT22;38010;53.264;6.592;2022-11-11T09:17:49;16.60;99.90
51996;DHT22;38010;53.264;6.592;2022-11-11T09:20:15;16.60;99.90
51996;DHT22;38010;53.264;6.592;2022-11-11T09:22:42;16.60;99.90
51996;DHT22;38010;53.264;6.592;2022-11-11T09:25:09;16.60;99.90
51996;DHT22;38010;53.264;6.592;2022-11-11T09:27:35;16.60;99.90
51996;DHT22;38010;53.264;6.592;2022-11-11T09:30:01;16.60;99.90
51996;DHT22;38010;53.264;6.592;2022-11-11T09:32:27;16.60;99.90
51996;DHT22;38010;53.264;6.592;2022-11-11T09:34:52;16.60;99.90
51996;DHT22;38010;53.264;6.592;2022-11-11T09:37:20;16.60;99.90
51996;DHT22;38010;53.264;6.592;2022-11-11T09:39:46;16.60;99.90
51996;DHT22;38010;53.264;6.592;2022-11-11T09:51:01;16.60;99.90
51996;DHT22;38010;53.264;6.592;2022-11-11T09:53:41;16.60;99.90
51996;DHT22;38010;53.264;6.592;2022-11-11T09:56:12;16.60;99.90
51996;DHT22;38010;53.264;6.592;2022-11-11T09:58:47;16.60;99.90
51996;DHT22;38010;53.264;6.592;2022-11-11T10:01:19;16.60;99.90
51996;DHT22;38010;53.264;6.592;2022-11-11T10:03:52;16.60;99.90
51996;DHT22;38010;53.264;6.592;2022-11-11T10:06:22;16.50;99.90
51996;DHT22;38010;53.264;6.592;2022-11-11T10:14:13;16.50;99.90
51996;DHT22;38010;53.264;6.592;2022-11-11T10:16:53;16.50;99.90
51996;DHT22;38010;53.264;6.592;2022-11-11T10:21:59;16.40;99.90
51996;DHT22;38010;53.264;6.592;2022-11-11T10:24:32;16.40;99.90
51996;DHT22;38010;53.264;6.592;2022-11-11T10:27:03;16.40;99.90
51996;DHT22;38010;53.264;6.592;2022-11-11T10:29:40;16.40;99.90
51996;DHT22;38010;53.264;6.592;2022-11-11T10:32:23;16.40;99.90
51996;DHT22;38010;53.264;6.592;2022-11-11T10:34:50;16.40;99.90
51996;DHT22;38010;53.264;6.592;2022-11-11T10:37:24;16.40;99.90
51996;DHT22;38010;53.264;6.592;2022-11-11T10:42:26;16.40;99.90
51996;DHT22;38010;53.264;6.592;2022-11-11T10:44:58;16.40;99.90
51996;DHT22;38010;53.264;6.592;2022-11-11T10:50:15;16.40;99.90
51996;DHT22;38010;53.264;6.592;2022-11-11T10:52:58;16.40;99.90
51996;DHT22;38010;53.264;6.592;2022-11-11T10:58:50;16.40;99.90
51996;DHT22;38010;53.264;6.592;2022-11-11T11:01:12;16.50;99.90
51996;DHT22;38010;53.264;6.592;2022-11-11T11:03:59;16.50;99.90
51996;DHT22;38010;53.264;6.592;2022-11-11T11:06:35;16.50;99.90
51996;DHT22;38010;53.264;6.592;2022-11-11T11:09:10;16.50;99.90
51996;DHT22;38010;53.264;6.592;2022-11-11T11:14:41;16.50;99.90
51996;DHT22;38010;53.264;6.592;2022-11-11T11:17:16;16.50;99.90
51996;DHT22;38010;53.264;6.592;2022-11-11T11:19:42;16.50;99.90
51996;DHT22;38010;53.264;6.592;2022-11-11T11:22:08;16.50;99.90
51996;DHT22;38010;53.264;6.592;2022-11-11T11:24:35;16.60;99.90
51996;DHT22;38010;53.264;6.592;2022-11-11T11:27:06;16.60;99.90
51996;DHT22;38010;53.264;6.592;2022-11-11T11:29:39;16.60;99.90
51996;DHT22;38010;53.264;6.592;2022-11-11T11:32:14;16.60;99.90
51996;DHT22;38010;53.264;6.592;2022-11-11T11:37:14;16.60;99.90
51996;DHT22;38010;53.264;6.592;2022-11-11T11:39:41;16.60;99.90
51996;DHT22;38010;53.264;6.592;2022-11-11T11:42:07;16.60;99.90
51996;DHT22;38010;53.264;6.592;2022-11-11T11:44:35;16.60;99.90
51996;DHT22;38010;53.264;6.592;2022-11-11T11:55:39;16.50;99.90
51996;DHT22;38010;53.264;6.592;2022-11-11T12:01:12;16.50;99.90
51996;DHT22;38010;53.264;6.592;2022-11-11T12:22:40;16.40;99.90
51996;DHT22;38010;53.264;6.592;2022-11-11T12:28:01;16.40;99.90
51996;DHT22;38010;53.264;6.592;2022-11-11T12:30:29;16.40;99.90
51996;DHT22;38010;53.264;6.592;2022-11-11T12:35:55;16.30;99.90
51996;DHT22;38010;53.264;6.592;2022-11-11T12:38:49;16.30;99.90
51996;DHT22;38010;53.264;6.592;2022-11-11T12:52:16;16.30;99.90
51996;DHT22;38010;53.264;6.592;2022-11-11T13:00:22;16.20;99.90
51996;DHT22;38010;53.264;6.592;2022-11-11T13:03:03;16.20;99.90
51996;DHT22;38010;53.264;6.592;2022-11-11T13:11:13;16.20;99.90
51996;DHT22;38010;53.264;6.592;2022-11-11T13:16:32;16.20;99.90
51996;DHT22;38010;53.264;6.592;2022-11-11T13:19:17;16.10;99.90
51996;DHT22;38010;53.264;6.592;2022-11-11T13:22:05;16.10;99.90
51996;DHT22;38010;53.264;6.592;2022-11-11T13:24:34;16.10;99.90
51996;DHT22;38010;53.264;6.592;2022-11-11T13:27:03;16.10;99.90
51996;DHT22;38010;53.264;6.592;2022-11-11T13:32:28;16.10;99.90
51996;DHT22;38010;53.264;6.592;2022-11-11T13:34:57;16.20;99.90
51996;DHT22;38010;53.264;6.592;2022-11-11T13:37:29;16.10;99.90
51996;DHT22;38010;53.264;6.592;2022-11-11T13:40:05;16.10;99.90
51996;DHT22;38010;53.264;6.592;2022-11-11T13:42:47;16.10;99.90
51996;DHT22;38010;53.264;6.592;2022-11-11T13:45:35;16.10;99.90
51996;DHT22;38010;53.264;6.592;2022-11-11T13:48:04;16.10;99.90
51996;DHT22;38010;53.264;6.592;2022-11-11T13:50:32;16.00;99.90
51996;DHT22;38010;53.264;6.592;2022-11-11T13:53:04;16.00;99.90
51996;DHT22;38010;53.264;6.592;2022-11-11T13:55:38;16.00;99.90
51996;DHT22;38010;53.264;6.592;2022-11-11T13:58:05;16.00;99.90
51996;DHT22;38010;53.264;6.592;2022-11-11T14:00:37;16.10;99.90
51996;DHT22;38010;53.264;6.592;2022-11-11T14:05:47;16.10;99.90
51996;DHT22;38010;53.264;6.592;2022-11-11T14:13:51;16.20;99.90
51996;DHT22;38010;53.264;6.592;2022-11-11T14:24:08;16.30;99.90
51996;DHT22;38010;53.264;6.592;2022-11-11T14:26:33;16.30;99.90
51996;DHT22;38010;53.264;6.592;2022-11-11T14:29:01;16.30;99.90
51996;DHT22;38010;53.264;6.592;2022-11-11T14:31:53;16.30;99.90
51996;DHT22;38010;53.264;6.592;2022-11-11T14:35:09;16.30;99.90
51996;DHT22;38010;53.264;6.592;2022-11-11T14:38:04;16.40;99.90
51996;DHT22;38010;53.264;6.592;2022-11-11T14:40:33;16.40;99.90
51996;DHT22;38010;53.264;6.592;2022-11-11T14:46:10;16.40;99.90
51996;DHT22;38010;53.264;6.592;2022-11-11T14:48:51;16.40;99.90
51996;DHT22;38010;53.264;6.592;2022-11-11T14:51:52;16.40;99.90
51996;DHT22;38010;53.264;6.592;2022-11-11T14:57:20;16.40;99.90
51996;DHT22;38010;53.264;6.592;2022-11-11T14:59:46;16.40;99.90
51996;DHT22;38010;53.264;6.592;2022-11-11T15:02:21;16.40;99.90
51996;DHT22;38010;53.264;6.592;2022-11-11T15:04:49;16.40;99.90
51996;DHT22;38010;53.264;6.592;2022-11-11T15:10:38;16.40;99.90
51996;DHT22;38010;53.264;6.592;2022-11-11T15:21:37;16.30;99.90
51996;DHT22;38010;53.264;6.592;2022-11-11T15:27:19;16.30;99.90
51996;DHT22;38010;53.264;6.592;2022-11-11T15:29:59;16.30;99.90
51996;DHT22;38010;53.264;6.592;2022-11-11T15:35:26;16.30;99.90
51996;DHT22;38010;53.264;6.592;2022-11-11T15:37:57;16.30;99.90
51996;DHT22;38010;53.264;6.592;2022-11-11T15:40:25;16.30;99.90
51996;DHT22;38010;53.264;6.592;2022-11-11T15:42:52;16.30;99.90
51996;DHT22;38010;53.264;6.592;2022-11-11T15:47:44;16.20;99.90
51996;DHT22;38010;53.264;6.592;2022-11-11T15:50:28;16.30;99.90
51996;DHT22;38010;53.264;6.592;2022-11-11T15:52:58;16.30;99.90
51996;DHT22;38010;53.264;6.592;2022-11-11T15:55:32;16.20;99.90
51996;DHT22;38010;53.264;6.592;2022-11-11T16:00:39;16.20;99.90
51996;DHT22;38010;53.264;6.592;2022-11-11T16:03:05;16.20;99.90
51996;DHT22;38010;53.264;6.592;2022-11-11T16:05:37;16.20;99.90
51996;DHT22;38010;53.264;6.592;2022-11-11T16:08:07;16.20;99.90
51996;DHT22;38010;53.264;6.592;2022-11-11T16:10:36;16.20;99.90
51996;DHT22;38010;53.264;6.592;2022-11-11T16:13:10;16.20;99.90
51996;DHT22;38010;53.264;6.592;2022-11-11T16:18:22;16.20;99.90
51996;DHT22;38010;53.264;6.592;2022-11-11T16:20:57;16.20;99.90
51996;DHT22;38010;53.264;6.592;2022-11-11T16:23:24;16.20;99.90
51996;DHT22;38010;53.264;6.592;2022-11-11T16:25:51;16.20;99.90
51996;DHT22;38010;53.264;6.592;2022-11-11T16:28:17;16.20;99.90
51996;DHT22;38010;53.264;6.592;2022-11-11T16:30:43;16.20;99.90
51996;DHT22;38010;53.264;6.592;2022-11-11T16:35:51;16.20;99.90
51996;DHT22;38010;53.264;6.592;2022-11-11T16:38:30;16.20;99.90
51996;DHT22;38010;53.264;6.592;2022-11-11T16:40:56;16.20;99.90
51996;DHT22;38010;53.264;6.592;2022-11-11T16:43:24;16.20;99.90
51996;DHT22;38010;53.264;6.592;2022-11-11T16:46:00;16.20;99.90
51996;DHT22;38010;53.264;6.592;2022-11-11T16:48:47;16.20;99.90
51996;DHT22;38010;53.264;6.592;2022-11-11T16:51:23;16.20;99.90
51996;DHT22;38010;53.264;6.592;2022-11-11T16:54:06;16.20;99.90
51996;DHT22;38010;53.264;6.592;2022-11-11T16:56:33;16.20;99.90
51996;DHT22;38010;53.264;6.592;2022-11-11T16:59:18;16.20;99.90
51996;DHT22;38010;53.264;6.592;2022-11-11T17:01:46;16.20;99.90
51996;DHT22;38010;53.264;6.592;2022-11-11T17:04:13;16.20;99.90
51996;DHT22;38010;53.264;6.592;2022-11-11T17:06:56;16.20;99.90
51996;DHT22;38010;53.264;6.592;2022-11-11T17:09:30;16.20;99.90
51996;DHT22;38010;53.264;6.592;2022-11-11T17:11:57;16.20;99.90
51996;DHT22;38010;53.264;6.592;2022-11-11T17:14:24;16.20;99.90
51996;DHT22;38010;53.264;6.592;2022-11-11T17:16:50;16.10;99.90
51996;DHT22;38010;53.264;6.592;2022-11-11T17:19:16;16.20;99.90
51996;DHT22;38010;53.264;6.592;2022-11-11T17:21:42;16.20;99.90
51996;DHT22;38010;53.264;6.592;2022-11-11T17:24:07;16.20;99.90
51996;DHT22;38010;53.264;6.592;2022-11-11T17:26:33;16.20;99.90
51996;DHT22;38010;53.264;6.592;2022-11-11T17:28:59;16.20;99.90
51996;DHT22;38010;53.264;6.592;2022-11-11T17:31:24;16.20;99.90
51996;DHT22;38010;53.264;6.592;2022-11-11T17:33:50;16.20;99.90
51996;DHT22;38010;53.264;6.592;2022-11-11T17:36:16;16.20;99.90
51996;DHT22;38010;53.264;6.592;2022-11-11T17:38:41;16.10;99.90
51996;DHT22;38010;53.264;6.592;2022-11-11T17:41:07;16.20;99.90
51996;DHT22;38010;53.264;6.592;2022-11-11T17:43:37;16.20;99.90
51996;DHT22;38010;53.264;6.592;2022-11-11T17:46:04;16.20;99.90
51996;DHT22;38010;53.264;6.592;2022-11-11T17:48:30;16.10;99.90
51996;DHT22;38010;53.264;6.592;2022-11-11T17:50:55;16.20;99.90
51996;DHT22;38010;53.264;6.592;2022-11-11T17:53:21;16.10;99.90
51996;DHT22;38010;53.264;6.592;2022-11-11T17:55:47;16.10;99.90
51996;DHT22;38010;53.264;6.592;2022-11-11T17:58:13;16.10;99.90
51996;DHT22;38010;53.264;6.592;2022-11-11T18:00:38;16.10;99.90
51996;DHT22;38010;53.264;6.592;2022-11-11T18:03:06;16.10;99.90
51996;DHT22;38010;53.264;6.592;2022-11-11T18:05:35;16.10;99.90
51996;DHT22;38010;53.264;6.592;2022-11-11T18:08:01;16.10;99.90
51996;DHT22;38010;53.264;6.592;2022-11-11T18:10:28;16.10;99.90
51996;DHT22;38010;53.264;6.592;2022-11-11T18:12:55;16.10;99.90
51996;DHT22;38010;53.264;6.592;2022-11-11T18:15:21;16.10;99.90
51996;DHT22;38010;53.264;6.592;2022-11-11T18:17:46;16.10;99.90
51996;DHT22;38010;53.264;6.592;2022-11-11T18:20:12;16.10;99.90
51996;DHT22;38010;53.264;6.592;2022-11-11T18:22:38;16.10;99.90
51996;DHT22;38010;53.264;6.592;2022-11-11T18:25:04;16.10;99.90
51996;DHT22;38010;53.264;6.592;2022-11-11T18:27:29;16.10;99.90
51996;DHT22;38010;53.264;6.592;2022-11-11T18:29:55;16.10;99.90
51996;DHT22;38010;53.264;6.592;2022-11-11T18:32:21;16.20;99.90
51996;DHT22;38010;53.264;6.592;2022-11-11T18:34:46;16.10;99.90